HETCH HETCHY (HTH)

Elevation: 3870' · TUOLUMNE R basin · Operator: Hetch Hetchy Water and Power

Provisional data, subject to change.
Query executed Sunday at 7:38:18   clock

Select a sensor type for a plot of data.
Note: Reservoir Flows are daily averages.

Earlier

Date RES ELE    STORAGE    RES CHG    OUTFLOW    INFLOW    PPT INC    RAIN    PPTINC4   
 FEET   AF   AF   CFS   CFS   INCHES   INCHES   INCHES  
10/24/2014 -- 263080 -- 385 -- 0.00 0.00 0.00
10/25/2014 -- 262555 -- 300 -- 0.00 0.00 0.00
10/26/2014 -- 262205 -- 215 -- 0.22 0.22 0.19
10/27/2014 -- 261680 -- 243 -- 0.00 0.22 0.00
10/28/2014 -- 261155 -- 267 -- 0.00 0.22 0.00
10/29/2014 -- 260630 -- 344 -- 0.00 0.22 0.00
10/30/2014 -- 259930 -- 317 -- 0.00 0.22 0.00
10/31/2014 -- 259230 -- 348 -- 0.00 0.22 0.00
11/01/2014 -- 258880 -- 368 -- 1.47 1.69 1.10
11/02/2014 -- 258180 -- 367 -- 0.00 1.69 0.28
11/03/2014 -- 257134 -- 563 -- 0.00 1.69 0.00
11/04/2014 -- 256438 -- 293 -- 0.00 1.69 0.00
11/05/2014 -- 255916 -- 365 -- 0.00 1.69 0.00
11/06/2014 -- 255220 -- 365 -- 0.00 1.69 0.00
11/07/2014 -- 254524 -- 365 -- 0.00 1.69 0.00
11/08/2014 -- 253831 -- 368 -- 0.00 1.69 0.00
11/09/2014 -- 253139 -- 367 -- 0.00 1.69 0.00
11/10/2014 -- 252477 -- 370 -- 0.00 1.69 0.00
11/11/2014 -- 251755 -- 360 -- 0.00 1.69 0.00
11/12/2014 -- 251063 -- 366 -- 0.00 1.69 0.00
11/13/2014 -- 250371 -- 403 -- 0.56 2.25 0.19
11/14/2014 -- 249679 -- 425 -- 0.02 2.27 0.34
11/15/2014 -- 248988 -- 260 -- 0.00 2.27 0.00
11/16/2014 -- 248300 -- 430 -- 0.00 2.27 0.00
11/17/2014 -- 247440 -- 435 -- 0.00 2.27 0.00
11/18/2014 -- 246752 -- 438 -- 0.00 2.27 0.00
11/19/2014 -- 245892 -- 439 -- 0.00 2.27 0.00
11/20/2014 -- 245036 -- 437 -- 0.02 2.29 0.02
11/21/2014 -- -- -- -- -- 0.23 2.52 0.19
11/22/2014 -- -- -- -- -- -- 2.52 0.00
11/23/2014 -- -- -- -- -- -- -- --

Later | Latest

Warning! This data is preliminary and subject to revision.

Show HTH Map | Plot HTH Data | 1 Month HTH Data | Real-Time HTH Data | HTH Info